sensor_id;sensor_type;location;lat;lon;timestamp;P1;durP1;ratioP1;P2;durP2;ratioP2
14209;SDS011;7188;56.070;12.698;2023-02-28T00:01:20;7.53;;;5.00;;
14209;SDS011;7188;56.070;12.698;2023-02-28T00:03:47;7.50;;;4.77;;
14209;SDS011;7188;56.070;12.698;2023-02-28T00:06:13;6.10;;;4.57;;
14209;SDS011;7188;56.070;12.698;2023-02-28T00:11:26;5.10;;;4.57;;
14209;SDS011;7188;56.070;12.698;2023-02-28T00:13:51;8.00;;;5.30;;
14209;SDS011;7188;56.070;12.698;2023-02-28T00:16:18;7.70;;;5.00;;
14209;SDS011;7188;56.070;12.698;2023-02-28T00:18:45;6.90;;;4.17;;
14209;SDS011;7188;56.070;12.698;2023-02-28T00:21:12;4.90;;;3.70;;
14209;SDS011;7188;56.070;12.698;2023-02-28T00:23:39;7.17;;;4.30;;
14209;SDS011;7188;56.070;12.698;2023-02-28T00:26:05;6.77;;;4.13;;
14209;SDS011;7188;56.070;12.698;2023-02-28T00:28:31;7.67;;;5.10;;
14209;SDS011;7188;56.070;12.698;2023-02-28T00:30:58;7.90;;;4.60;;
14209;SDS011;7188;56.070;12.698;2023-02-28T00:33:25;7.73;;;4.23;;
14209;SDS011;7188;56.070;12.698;2023-02-28T00:35:51;6.40;;;4.53;;
14209;SDS011;7188;56.070;12.698;2023-02-28T00:38:16;7.23;;;4.53;;
14209;SDS011;7188;56.070;12.698;2023-02-28T00:40:42;6.63;;;4.03;;
14209;SDS011;7188;56.070;12.698;2023-02-28T00:43:08;6.00;;;4.47;;
14209;SDS011;7188;56.070;12.698;2023-02-28T00:45:34;5.60;;;4.17;;
14209;SDS011;7188;56.070;12.698;2023-02-28T00:47:59;6.53;;;4.07;;
14209;SDS011;7188;56.070;12.698;2023-02-28T00:50:25;7.87;;;4.60;;
14209;SDS011;7188;56.070;12.698;2023-02-28T00:52:51;5.63;;;4.27;;
14209;SDS011;7188;56.070;12.698;2023-02-28T00:55:17;6.10;;;4.63;;
14209;SDS011;7188;56.070;12.698;2023-02-28T00:57:43;5.77;;;4.37;;
14209;SDS011;7188;56.070;12.698;2023-02-28T01:00:09;6.60;;;4.60;;
14209;SDS011;7188;56.070;12.698;2023-02-28T01:02:36;7.77;;;5.63;;
14209;SDS011;7188;56.070;12.698;2023-02-28T01:05:01;7.90;;;4.97;;
14209;SDS011;7188;56.070;12.698;2023-02-28T01:07:28;4.17;;;3.53;;
14209;SDS011;7188;56.070;12.698;2023-02-28T01:09:54;5.57;;;3.67;;
14209;SDS011;7188;56.070;12.698;2023-02-28T01:12:19;5.37;;;4.60;;
14209;SDS011;7188;56.070;12.698;2023-02-28T01:14:45;4.73;;;4.23;;
14209;SDS011;7188;56.070;12.698;2023-02-28T01:19:55;7.97;;;4.40;;
14209;SDS011;7188;56.070;12.698;2023-02-28T01:22:21;4.30;;;3.77;;
14209;SDS011;7188;56.070;12.698;2023-02-28T01:24:47;5.50;;;3.73;;
14209;SDS011;7188;56.070;12.698;2023-02-28T01:27:13;6.27;;;3.90;;
14209;SDS011;7188;56.070;12.698;2023-02-28T01:32:23;7.73;;;4.03;;
14209;SDS011;7188;56.070;12.698;2023-02-28T01:34:48;5.27;;;3.93;;
14209;SDS011;7188;56.070;12.698;2023-02-28T01:37:14;5.73;;;3.70;;
14209;SDS011;7188;56.070;12.698;2023-02-28T01:39:39;3.40;;;3.03;;
14209;SDS011;7188;56.070;12.698;2023-02-28T01:42:05;6.33;;;4.00;;
14209;SDS011;7188;56.070;12.698;2023-02-28T01:47:34;5.67;;;3.97;;
14209;SDS011;7188;56.070;12.698;2023-02-28T01:50:04;5.10;;;3.53;;
14209;SDS011;7188;56.070;12.698;2023-02-28T01:52:34;5.70;;;4.40;;
14209;SDS011;7188;56.070;12.698;2023-02-28T01:55:01;6.23;;;4.03;;
14209;SDS011;7188;56.070;12.698;2023-02-28T01:57:30;4.60;;;4.00;;
14209;SDS011;7188;56.070;12.698;2023-02-28T02:00:04;5.93;;;3.37;;
14209;SDS011;7188;56.070;12.698;2023-02-28T02:02:35;6.97;;;4.00;;
14209;SDS011;7188;56.070;12.698;2023-02-28T02:05:16;6.10;;;4.23;;
14209;SDS011;7188;56.070;12.698;2023-02-28T02:07:44;5.43;;;4.00;;
14209;SDS011;7188;56.070;12.698;2023-02-28T02:15:49;4.00;;;3.40;;
14209;SDS011;7188;56.070;12.698;2023-02-28T02:29:47;5.07;;;3.07;;
14209;SDS011;7188;56.070;12.698;2023-02-28T02:38:20;4.57;;;3.47;;
14209;SDS011;7188;56.070;12.698;2023-02-28T02:41:33;4.70;;;2.67;;
14209;SDS011;7188;56.070;12.698;2023-02-28T02:44:02;3.67;;;3.27;;
14209;SDS011;7188;56.070;12.698;2023-02-28T02:46:42;7.60;;;3.50;;
14209;SDS011;7188;56.070;12.698;2023-02-28T02:49:14;6.70;;;3.67;;
14209;SDS011;7188;56.070;12.698;2023-02-28T02:51:45;4.23;;;3.27;;
14209;SDS011;7188;56.070;12.698;2023-02-28T02:54:27;4.30;;;3.30;;
14209;SDS011;7188;56.070;12.698;2023-02-28T02:56:57;3.60;;;3.20;;
14209;SDS011;7188;56.070;12.698;2023-02-28T03:02:20;5.50;;;2.87;;
14209;SDS011;7188;56.070;12.698;2023-02-28T03:04:58;4.03;;;3.27;;
14209;SDS011;7188;56.070;12.698;2023-02-28T03:07:27;3.53;;;2.97;;
14209;SDS011;7188;56.070;12.698;2023-02-28T03:09:53;3.97;;;3.17;;
14209;SDS011;7188;56.070;12.698;2023-02-28T03:12:40;3.00;;;2.77;;
14209;SDS011;7188;56.070;12.698;2023-02-28T03:15:23;4.57;;;3.50;;
14209;SDS011;7188;56.070;12.698;2023-02-28T03:18:08;4.37;;;3.27;;
14209;SDS011;7188;56.070;12.698;2023-02-28T03:20:45;4.00;;;3.10;;
14209;SDS011;7188;56.070;12.698;2023-02-28T03:23:23;4.67;;;4.17;;
14209;SDS011;7188;56.070;12.698;2023-02-28T03:26:19;6.87;;;3.87;;
14209;SDS011;7188;56.070;12.698;2023-02-28T03:31:48;5.03;;;3.80;;
14209;SDS011;7188;56.070;12.698;2023-02-28T03:34:41;3.30;;;3.00;;
14209;SDS011;7188;56.070;12.698;2023-02-28T03:37:12;5.23;;;3.70;;
14209;SDS011;7188;56.070;12.698;2023-02-28T03:39:59;5.83;;;4.33;;
14209;SDS011;7188;56.070;12.698;2023-02-28T03:42:31;5.90;;;4.23;;
14209;SDS011;7188;56.070;12.698;2023-02-28T03:45:03;5.40;;;4.40;;
14209;SDS011;7188;56.070;12.698;2023-02-28T03:47:45;5.57;;;4.00;;
14209;SDS011;7188;56.070;12.698;2023-02-28T03:50:19;5.73;;;4.30;;
14209;SDS011;7188;56.070;12.698;2023-02-28T03:55:39;6.10;;;3.43;;
14209;SDS011;7188;56.070;12.698;2023-02-28T03:58:13;4.90;;;3.33;;
14209;SDS011;7188;56.070;12.698;2023-02-28T04:00:57;6.27;;;3.70;;
14209;SDS011;7188;56.070;12.698;2023-02-28T04:03:36;4.03;;;3.63;;
14209;SDS011;7188;56.070;12.698;2023-02-28T04:06:03;4.27;;;3.87;;
14209;SDS011;7188;56.070;12.698;2023-02-28T04:08:31;6.03;;;3.90;;
14209;SDS011;7188;56.070;12.698;2023-02-28T04:11:00;7.27;;;4.63;;
14209;SDS011;7188;56.070;12.698;2023-02-28T04:13:33;4.10;;;3.70;;
14209;SDS011;7188;56.070;12.698;2023-02-28T04:15:59;5.53;;;3.67;;
14209;SDS011;7188;56.070;12.698;2023-02-28T04:18:25;5.80;;;3.70;;
14209;SDS011;7188;56.070;12.698;2023-02-28T04:20:50;4.10;;;3.23;;
14209;SDS011;7188;56.070;12.698;2023-02-28T04:23:16;7.37;;;4.30;;
14209;SDS011;7188;56.070;12.698;2023-02-28T04:25:41;4.90;;;3.80;;
14209;SDS011;7188;56.070;12.698;2023-02-28T04:28:07;5.00;;;3.73;;
14209;SDS011;7188;56.070;12.698;2023-02-28T04:30:33;6.43;;;4.90;;
14209;SDS011;7188;56.070;12.698;2023-02-28T04:32:59;8.07;;;4.03;;
14209;SDS011;7188;56.070;12.698;2023-02-28T04:35:26;7.97;;;4.07;;
14209;SDS011;7188;56.070;12.698;2023-02-28T04:37:52;5.00;;;3.77;;
14209;SDS011;7188;56.070;12.698;2023-02-28T04:40:18;6.43;;;5.07;;
14209;SDS011;7188;56.070;12.698;2023-02-28T04:42:43;5.80;;;4.77;;
14209;SDS011;7188;56.070;12.698;2023-02-28T04:45:09;6.27;;;4.97;;
14209;SDS011;7188;56.070;12.698;2023-02-28T04:47:37;7.67;;;4.40;;
14209;SDS011;7188;56.070;12.698;2023-02-28T04:50:03;6.23;;;5.20;;
14209;SDS011;7188;56.070;12.698;2023-02-28T04:52:28;9.03;;;6.37;;
14209;SDS011;7188;56.070;12.698;2023-02-28T04:54:54;8.60;;;6.10;;
14209;SDS011;7188;56.070;12.698;2023-02-28T04:57:20;6.37;;;5.17;;
14209;SDS011;7188;56.070;12.698;2023-02-28T04:59:46;8.00;;;5.50;;
14209;SDS011;7188;56.070;12.698;2023-02-28T05:02:11;7.93;;;5.87;;
14209;SDS011;7188;56.070;12.698;2023-02-28T05:04:37;9.33;;;6.10;;
14209;SDS011;7188;56.070;12.698;2023-02-28T05:07:03;9.80;;;5.83;;
14209;SDS011;7188;56.070;12.698;2023-02-28T05:09:29;8.70;;;5.80;;
14209;SDS011;7188;56.070;12.698;2023-02-28T05:11:55;11.67;;;7.47;;
14209;SDS011;7188;56.070;12.698;2023-02-28T05:14:21;10.53;;;6.97;;
14209;SDS011;7188;56.070;12.698;2023-02-28T05:16:46;8.10;;;7.23;;
14209;SDS011;7188;56.070;12.698;2023-02-28T05:19:12;8.27;;;6.23;;
14209;SDS011;7188;56.070;12.698;2023-02-28T05:21:39;9.43;;;7.50;;
14209;SDS011;7188;56.070;12.698;2023-02-28T05:24:09;10.77;;;7.97;;
14209;SDS011;7188;56.070;12.698;2023-02-28T05:26:37;13.80;;;9.43;;
14209;SDS011;7188;56.070;12.698;2023-02-28T05:29:07;14.57;;;9.17;;
14209;SDS011;7188;56.070;12.698;2023-02-28T05:31:35;13.07;;;8.50;;
14209;SDS011;7188;56.070;12.698;2023-02-28T05:34:01;12.67;;;9.20;;
14209;SDS011;7188;56.070;12.698;2023-02-28T05:36:29;14.57;;;10.00;;
14209;SDS011;7188;56.070;12.698;2023-02-28T05:38:54;13.30;;;8.93;;
14209;SDS011;7188;56.070;12.698;2023-02-28T05:41:20;14.83;;;9.20;;
14209;SDS011;7188;56.070;12.698;2023-02-28T05:43:46;12.27;;;8.73;;
14209;SDS011;7188;56.070;12.698;2023-02-28T05:46:14;12.93;;;8.80;;
14209;SDS011;7188;56.070;12.698;2023-02-28T05:48:41;14.70;;;9.93;;
14209;SDS011;7188;56.070;12.698;2023-02-28T05:51:08;13.33;;;9.83;;
14209;SDS011;7188;56.070;12.698;2023-02-28T05:53:52;10.93;;;9.03;;
14209;SDS011;7188;56.070;12.698;2023-02-28T05:56:18;10.73;;;8.70;;
14209;SDS011;7188;56.070;12.698;2023-02-28T05:58:43;12.10;;;7.93;;
14209;SDS011;7188;56.070;12.698;2023-02-28T06:04:05;11.80;;;7.27;;
14209;SDS011;7188;56.070;12.698;2023-02-28T06:06:33;11.87;;;7.60;;
14209;SDS011;7188;56.070;12.698;2023-02-28T06:08:59;10.13;;;7.80;;
14209;SDS011;7188;56.070;12.698;2023-02-28T06:14:17;8.87;;;6.30;;
14209;SDS011;7188;56.070;12.698;2023-02-28T06:16:45;13.23;;;8.43;;
14209;SDS011;7188;56.070;12.698;2023-02-28T06:19:11;9.57;;;7.07;;
14209;SDS011;7188;56.070;12.698;2023-02-28T06:21:39;8.67;;;7.17;;
14209;SDS011;7188;56.070;12.698;2023-02-28T06:24:05;12.40;;;8.23;;
14209;SDS011;7188;56.070;12.698;2023-02-28T06:26:30;11.40;;;8.33;;
14209;SDS011;7188;56.070;12.698;2023-02-28T06:28:56;14.33;;;8.37;;
14209;SDS011;7188;56.070;12.698;2023-02-28T06:31:22;9.77;;;7.80;;
14209;SDS011;7188;56.070;12.698;2023-02-28T06:33:50;12.23;;;7.40;;
14209;SDS011;7188;56.070;12.698;2023-02-28T06:36:16;13.67;;;9.40;;
14209;SDS011;7188;56.070;12.698;2023-02-28T06:38:43;8.87;;;7.20;;
14209;SDS011;7188;56.070;12.698;2023-02-28T06:41:14;12.10;;;9.13;;
14209;SDS011;7188;56.070;12.698;2023-02-28T06:43:40;11.10;;;8.53;;
14209;SDS011;7188;56.070;12.698;2023-02-28T06:46:08;10.20;;;7.47;;
14209;SDS011;7188;56.070;12.698;2023-02-28T06:48:37;9.33;;;6.27;;
14209;SDS011;7188;56.070;12.698;2023-02-28T06:53:34;14.70;;;8.00;;
14209;SDS011;7188;56.070;12.698;2023-02-28T06:55:59;11.17;;;8.40;;
14209;SDS011;7188;56.070;12.698;2023-02-28T06:58:30;11.13;;;8.07;;
14209;SDS011;7188;56.070;12.698;2023-02-28T07:00:56;11.37;;;7.83;;
14209;SDS011;7188;56.070;12.698;2023-02-28T07:03:21;8.87;;;7.30;;
14209;SDS011;7188;56.070;12.698;2023-02-28T07:05:48;12.13;;;8.20;;
14209;SDS011;7188;56.070;12.698;2023-02-28T07:08:13;10.37;;;7.80;;
14209;SDS011;7188;56.070;12.698;2023-02-28T07:10:40;11.70;;;9.27;;
14209;SDS011;7188;56.070;12.698;2023-02-28T07:13:07;9.70;;;8.07;;
14209;SDS011;7188;56.070;12.698;2023-02-28T07:15:34;14.00;;;9.10;;
14209;SDS011;7188;56.070;12.698;2023-02-28T07:18:00;13.63;;;9.40;;
14209;SDS011;7188;56.070;12.698;2023-02-28T07:20:26;12.30;;;8.43;;
14209;SDS011;7188;56.070;12.698;2023-02-28T07:22:52;9.83;;;7.77;;
14209;SDS011;7188;56.070;12.698;2023-02-28T07:25:29;9.40;;;7.27;;
14209;SDS011;7188;56.070;12.698;2023-02-28T07:27:55;10.13;;;8.17;;
14209;SDS011;7188;56.070;12.698;2023-02-28T07:30:21;8.03;;;6.63;;
14209;SDS011;7188;56.070;12.698;2023-02-28T07:32:47;9.97;;;7.20;;
14209;SDS011;7188;56.070;12.698;2023-02-28T07:35:13;10.63;;;6.53;;
14209;SDS011;7188;56.070;12.698;2023-02-28T07:37:41;10.73;;;7.30;;
14209;SDS011;7188;56.070;12.698;2023-02-28T07:40:08;8.63;;;7.17;;
14209;SDS011;7188;56.070;12.698;2023-02-28T07:42:39;10.40;;;6.83;;
14209;SDS011;7188;56.070;12.698;2023-02-28T07:45:06;8.33;;;6.37;;
14209;SDS011;7188;56.070;12.698;2023-02-28T07:47:39;8.47;;;6.47;;
14209;SDS011;7188;56.070;12.698;2023-02-28T07:50:07;10.20;;;6.07;;
14209;SDS011;7188;56.070;12.698;2023-02-28T07:52:35;8.20;;;6.60;;
14209;SDS011;7188;56.070;12.698;2023-02-28T07:55:02;8.57;;;6.93;;
14209;SDS011;7188;56.070;12.698;2023-02-28T07:57:29;12.07;;;7.20;;
14209;SDS011;7188;56.070;12.698;2023-02-28T07:59:55;9.27;;;7.07;;
14209;SDS011;7188;56.070;12.698;2023-02-28T08:02:21;9.73;;;5.83;;
14209;SDS011;7188;56.070;12.698;2023-02-28T08:04:46;9.77;;;6.20;;
14209;SDS011;7188;56.070;12.698;2023-02-28T08:07:13;11.50;;;6.10;;
14209;SDS011;7188;56.070;12.698;2023-02-28T08:09:40;7.73;;;6.33;;
14209;SDS011;7188;56.070;12.698;2023-02-28T08:12:06;6.77;;;6.10;;
14209;SDS011;7188;56.070;12.698;2023-02-28T08:14:32;8.90;;;5.63;;
14209;SDS011;7188;56.070;12.698;2023-02-28T08:16:58;6.53;;;4.67;;
14209;SDS011;7188;56.070;12.698;2023-02-28T08:19:24;7.37;;;4.83;;
14209;SDS011;7188;56.070;12.698;2023-02-28T08:21:50;5.57;;;5.07;;
14209;SDS011;7188;56.070;12.698;2023-02-28T08:24:15;7.13;;;3.97;;
14209;SDS011;7188;56.070;12.698;2023-02-28T08:26:41;5.20;;;4.70;;
14209;SDS011;7188;56.070;12.698;2023-02-28T08:29:06;5.33;;;3.70;;
14209;SDS011;7188;56.070;12.698;2023-02-28T08:31:33;4.07;;;3.53;;
14209;SDS011;7188;56.070;12.698;2023-02-28T08:34:04;4.73;;;3.57;;
14209;SDS011;7188;56.070;12.698;2023-02-28T08:36:30;3.80;;;3.50;;
14209;SDS011;7188;56.070;12.698;2023-02-28T08:38:56;3.70;;;3.40;;
14209;SDS011;7188;56.070;12.698;2023-02-28T08:41:22;5.27;;;4.10;;
14209;SDS011;7188;56.070;12.698;2023-02-28T08:43:48;5.30;;;3.53;;
14209;SDS011;7188;56.070;12.698;2023-02-28T08:46:14;5.67;;;3.33;;
14209;SDS011;7188;56.070;12.698;2023-02-28T08:48:39;9.57;;;3.70;;
14209;SDS011;7188;56.070;12.698;2023-02-28T08:51:07;6.77;;;3.40;;
14209;SDS011;7188;56.070;12.698;2023-02-28T08:53:36;4.73;;;3.20;;
14209;SDS011;7188;56.070;12.698;2023-02-28T08:56:05;3.67;;;3.30;;
14209;SDS011;7188;56.070;12.698;2023-02-28T08:58:33;6.73;;;3.00;;
14209;SDS011;7188;56.070;12.698;2023-02-28T09:01:07;4.07;;;2.80;;
14209;SDS011;7188;56.070;12.698;2023-02-28T09:03:37;2.80;;;2.53;;
14209;SDS011;7188;56.070;12.698;2023-02-28T09:06:04;4.90;;;2.93;;
14209;SDS011;7188;56.070;12.698;2023-02-28T09:08:30;3.03;;;2.40;;
14209;SDS011;7188;56.070;12.698;2023-02-28T09:10:57;2.93;;;2.73;;
14209;SDS011;7188;56.070;12.698;2023-02-28T09:13:24;2.50;;;2.30;;
14209;SDS011;7188;56.070;12.698;2023-02-28T09:15:51;2.40;;;2.00;;
14209;SDS011;7188;56.070;12.698;2023-02-28T09:18:17;2.50;;;2.20;;
14209;SDS011;7188;56.070;12.698;2023-02-28T09:20:43;4.60;;;2.37;;
14209;SDS011;7188;56.070;12.698;2023-02-28T09:23:11;3.37;;;2.10;;
14209;SDS011;7188;56.070;12.698;2023-02-28T09:25:45;2.37;;;2.17;;
14209;SDS011;7188;56.070;12.698;2023-02-28T09:28:16;2.03;;;1.90;;
14209;SDS011;7188;56.070;12.698;2023-02-28T09:30:46;2.80;;;2.10;;
14209;SDS011;7188;56.070;12.698;2023-02-28T09:33:14;2.53;;;2.20;;
14209;SDS011;7188;56.070;12.698;2023-02-28T09:35:41;3.93;;;2.80;;
14209;SDS011;7188;56.070;12.698;2023-02-28T09:38:08;4.93;;;3.20;;
14209;SDS011;7188;56.070;12.698;2023-02-28T09:40:36;4.80;;;3.43;;
14209;SDS011;7188;56.070;12.698;2023-02-28T09:43:09;5.40;;;3.37;;
14209;SDS011;7188;56.070;12.698;2023-02-28T09:45:40;5.57;;;3.63;;
14209;SDS011;7188;56.070;12.698;2023-02-28T09:48:12;5.27;;;4.10;;
14209;SDS011;7188;56.070;12.698;2023-02-28T09:50:50;3.70;;;3.30;;
14209;SDS011;7188;56.070;12.698;2023-02-28T09:56:17;5.67;;;4.47;;
14209;SDS011;7188;56.070;12.698;2023-02-28T09:58:53;4.20;;;3.50;;
14209;SDS011;7188;56.070;12.698;2023-02-28T10:01:51;4.30;;;3.83;;
14209;SDS011;7188;56.070;12.698;2023-02-28T10:04:37;3.60;;;3.23;;
14209;SDS011;7188;56.070;12.698;2023-02-28T10:07:33;4.27;;;3.77;;
14209;SDS011;7188;56.070;12.698;2023-02-28T10:10:03;4.77;;;3.47;;
14209;SDS011;7188;56.070;12.698;2023-02-28T10:12:39;4.93;;;2.50;;
14209;SDS011;7188;56.070;12.698;2023-02-28T10:15:13;5.70;;;3.53;;
14209;SDS011;7188;56.070;12.698;2023-02-28T10:17:40;3.43;;;3.13;;
14209;SDS011;7188;56.070;12.698;2023-02-28T10:20:17;3.80;;;3.50;;
14209;SDS011;7188;56.070;12.698;2023-02-28T10:23:20;2.97;;;2.47;;
14209;SDS011;7188;56.070;12.698;2023-02-28T10:25:45;3.30;;;2.60;;
14209;SDS011;7188;56.070;12.698;2023-02-28T10:28:26;2.97;;;2.50;;
14209;SDS011;7188;56.070;12.698;2023-02-28T10:30:55;3.07;;;2.70;;
14209;SDS011;7188;56.070;12.698;2023-02-28T10:33:24;2.90;;;2.13;;
14209;SDS011;7188;56.070;12.698;2023-02-28T10:35:50;3.20;;;2.90;;
14209;SDS011;7188;56.070;12.698;2023-02-28T10:38:27;4.93;;;2.53;;
14209;SDS011;7188;56.070;12.698;2023-02-28T10:43:38;3.70;;;2.70;;
14209;SDS011;7188;56.070;12.698;2023-02-28T10:48:38;5.50;;;2.93;;
14209;SDS011;7188;56.070;12.698;2023-02-28T10:51:16;2.87;;;2.53;;
14209;SDS011;7188;56.070;12.698;2023-02-28T10:53:51;3.10;;;2.80;;
14209;SDS011;7188;56.070;12.698;2023-02-28T10:56:19;2.37;;;2.20;;
14209;SDS011;7188;56.070;12.698;2023-02-28T11:01:22;2.97;;;2.77;;
14209;SDS011;7188;56.070;12.698;2023-02-28T11:03:50;4.03;;;2.50;;
14209;SDS011;7188;56.070;12.698;2023-02-28T11:08:54;2.23;;;1.70;;
14209;SDS011;7188;56.070;12.698;2023-02-28T11:11:22;3.97;;;1.80;;
14209;SDS011;7188;56.070;12.698;2023-02-28T11:13:51;1.77;;;1.13;;
14209;SDS011;7188;56.070;12.698;2023-02-28T11:16:19;1.33;;;1.00;;
14209;SDS011;7188;56.070;12.698;2023-02-28T11:21:20;1.03;;;0.93;;
14209;SDS011;7188;56.070;12.698;2023-02-28T11:23:50;1.20;;;1.13;;
14209;SDS011;7188;56.070;12.698;2023-02-28T11:26:40;1.70;;;1.40;;
14209;SDS011;7188;56.070;12.698;2023-02-28T11:29:12;2.73;;;1.37;;
14209;SDS011;7188;56.070;12.698;2023-02-28T11:31:54;2.27;;;1.07;;
14209;SDS011;7188;56.070;12.698;2023-02-28T11:37:36;2.20;;;1.73;;
14209;SDS011;7188;56.070;12.698;2023-02-28T11:40:05;5.77;;;1.70;;
14209;SDS011;7188;56.070;12.698;2023-02-28T11:54:11;4.30;;;1.53;;
14209;SDS011;7188;56.070;12.698;2023-02-28T11:56:55;2.23;;;1.40;;
14209;SDS011;7188;56.070;12.698;2023-02-28T12:11:09;2.37;;;2.00;;
14209;SDS011;7188;56.070;12.698;2023-02-28T12:17:02;2.23;;;1.50;;
14209;SDS011;7188;56.070;12.698;2023-02-28T12:26:00;1.70;;;1.30;;
14209;SDS011;7188;56.070;12.698;2023-02-28T12:28:10;2.00;;;1.77;;
14209;SDS011;7188;56.070;12.698;2023-02-28T12:30:50;2.17;;;1.60;;
14209;SDS011;7188;56.070;12.698;2023-02-28T12:33:24;2.53;;;1.17;;
14209;SDS011;7188;56.070;12.698;2023-02-28T12:35:56;1.00;;;1.00;;
14209;SDS011;7188;56.070;12.698;2023-02-28T12:38:29;4.30;;;1.60;;
14209;SDS011;7188;56.070;12.698;2023-02-28T12:44:15;1.90;;;1.37;;
14209;SDS011;7188;56.070;12.698;2023-02-28T12:46:50;2.27;;;1.23;;
14209;SDS011;7188;56.070;12.698;2023-02-28T12:49:31;2.13;;;1.73;;
14209;SDS011;7188;56.070;12.698;2023-02-28T12:52:03;2.70;;;2.10;;
14209;SDS011;7188;56.070;12.698;2023-02-28T12:55:12;4.93;;;1.90;;
14209;SDS011;7188;56.070;12.698;2023-02-28T12:58:00;2.97;;;1.97;;
14209;SDS011;7188;56.070;12.698;2023-02-28T13:00:36;3.57;;;1.93;;
14209;SDS011;7188;56.070;12.698;2023-02-28T13:06:05;2.80;;;2.43;;
14209;SDS011;7188;56.070;12.698;2023-02-28T13:09:01;5.03;;;2.57;;
14209;SDS011;7188;56.070;12.698;2023-02-28T13:11:40;3.27;;;1.80;;
14209;SDS011;7188;56.070;12.698;2023-02-28T13:14:30;2.40;;;2.20;;
14209;SDS011;7188;56.070;12.698;2023-02-28T13:17:03;4.57;;;2.43;;
14209;SDS011;7188;56.070;12.698;2023-02-28T13:19:41;2.53;;;2.33;;
14209;SDS011;7188;56.070;12.698;2023-02-28T13:27:58;4.20;;;2.80;;
14209;SDS011;7188;56.070;12.698;2023-02-28T13:38:33;3.13;;;2.80;;
14209;SDS011;7188;56.070;12.698;2023-02-28T13:44:06;3.20;;;2.57;;
14209;SDS011;7188;56.070;12.698;2023-02-28T13:46:34;5.90;;;2.97;;
14209;SDS011;7188;56.070;12.698;2023-02-28T13:49:25;5.73;;;2.87;;
14209;SDS011;7188;56.070;12.698;2023-02-28T13:52:18;4.27;;;3.40;;
14209;SDS011;7188;56.070;12.698;2023-02-28T14:03:25;4.50;;;3.03;;
14209;SDS011;7188;56.070;12.698;2023-02-28T14:06:13;4.30;;;2.97;;
14209;SDS011;7188;56.070;12.698;2023-02-28T14:08:49;3.47;;;3.03;;
14209;SDS011;7188;56.070;12.698;2023-02-28T14:11:39;3.73;;;2.83;;
14209;SDS011;7188;56.070;12.698;2023-02-28T14:14:08;4.77;;;3.30;;
14209;SDS011;7188;56.070;12.698;2023-02-28T14:16:54;3.30;;;2.20;;
14209;SDS011;7188;56.070;12.698;2023-02-28T14:19:26;3.80;;;2.90;;
14209;SDS011;7188;56.070;12.698;2023-02-28T14:24:50;5.97;;;3.43;;
14209;SDS011;7188;56.070;12.698;2023-02-28T14:30:45;4.33;;;3.80;;
14209;SDS011;7188;56.070;12.698;2023-02-28T14:38:08;5.10;;;3.73;;
14209;SDS011;7188;56.070;12.698;2023-02-28T14:40:54;4.20;;;3.07;;
14209;SDS011;7188;56.070;12.698;2023-02-28T14:43:23;3.73;;;3.03;;
14209;SDS011;7188;56.070;12.698;2023-02-28T14:46:00;3.90;;;3.00;;
14209;SDS011;7188;56.070;12.698;2023-02-28T14:48:29;3.00;;;2.43;;
14209;SDS011;7188;56.070;12.698;2023-02-28T14:50:58;2.97;;;2.00;;
14209;SDS011;7188;56.070;12.698;2023-02-28T14:53:27;2.43;;;1.87;;
14209;SDS011;7188;56.070;12.698;2023-02-28T14:55:55;3.83;;;2.17;;
14209;SDS011;7188;56.070;12.698;2023-02-28T15:00:52;2.30;;;1.47;;
14209;SDS011;7188;56.070;12.698;2023-02-28T15:03:27;2.23;;;1.80;;
14209;SDS011;7188;56.070;12.698;2023-02-28T15:05:57;4.67;;;2.00;;
14209;SDS011;7188;56.070;12.698;2023-02-28T15:08:44;1.53;;;1.40;;
14209;SDS011;7188;56.070;12.698;2023-02-28T15:13:43;4.00;;;1.97;;
14209;SDS011;7188;56.070;12.698;2023-02-28T15:16:15;5.13;;;2.17;;
14209;SDS011;7188;56.070;12.698;2023-02-28T15:21:18;3.20;;;1.93;;
14209;SDS011;7188;56.070;12.698;2023-02-28T15:26:30;2.73;;;1.77;;
14209;SDS011;7188;56.070;12.698;2023-02-28T15:29:00;1.70;;;1.60;;
14209;SDS011;7188;56.070;12.698;2023-02-28T15:31:31;4.07;;;1.87;;
14209;SDS011;7188;56.070;12.698;2023-02-28T15:34:03;1.63;;;1.50;;
14209;SDS011;7188;56.070;12.698;2023-02-28T15:36:31;1.40;;;1.30;;
14209;SDS011;7188;56.070;12.698;2023-02-28T15:39:01;1.17;;;1.10;;
14209;SDS011;7188;56.070;12.698;2023-02-28T15:41:27;1.40;;;0.97;;
14209;SDS011;7188;56.070;12.698;2023-02-28T15:44:16;5.33;;;1.10;;
14209;SDS011;7188;56.070;12.698;2023-02-28T15:46:58;2.27;;;1.57;;
14209;SDS011;7188;56.070;12.698;2023-02-28T15:49:26;1.33;;;1.03;;
14209;SDS011;7188;56.070;12.698;2023-02-28T15:51:54;3.57;;;1.37;;
14209;SDS011;7188;56.070;12.698;2023-02-28T15:54:31;3.00;;;1.23;;
14209;SDS011;7188;56.070;12.698;2023-02-28T15:57:05;1.40;;;1.23;;
14209;SDS011;7188;56.070;12.698;2023-02-28T15:59:33;1.57;;;1.23;;
14209;SDS011;7188;56.070;12.698;2023-02-28T16:02:03;1.27;;;1.00;;
14209;SDS011;7188;56.070;12.698;2023-02-28T16:04:29;1.00;;;0.90;;
14209;SDS011;7188;56.070;12.698;2023-02-28T16:09:25;1.93;;;0.87;;
14209;SDS011;7188;56.070;12.698;2023-02-28T16:11:52;1.33;;;0.83;;
14209;SDS011;7188;56.070;12.698;2023-02-28T16:14:22;1.70;;;1.53;;
14209;SDS011;7188;56.070;12.698;2023-02-28T16:16:51;1.60;;;1.50;;
14209;SDS011;7188;56.070;12.698;2023-02-28T16:19:19;2.60;;;1.43;;
14209;SDS011;7188;56.070;12.698;2023-02-28T16:21:45;3.27;;;2.10;;
14209;SDS011;7188;56.070;12.698;2023-02-28T16:24:11;3.07;;;1.97;;
14209;SDS011;7188;56.070;12.698;2023-02-28T16:26:38;3.43;;;2.60;;
14209;SDS011;7188;56.070;12.698;2023-02-28T16:29:06;4.67;;;2.83;;
14209;SDS011;7188;56.070;12.698;2023-02-28T16:31:35;4.63;;;2.60;;
14209;SDS011;7188;56.070;12.698;2023-02-28T16:34:02;2.80;;;2.10;;
14209;SDS011;7188;56.070;12.698;2023-02-28T16:36:28;3.57;;;2.63;;
14209;SDS011;7188;56.070;12.698;2023-02-28T16:38:54;4.43;;;3.33;;
14209;SDS011;7188;56.070;12.698;2023-02-28T16:41:24;4.83;;;3.67;;
14209;SDS011;7188;56.070;12.698;2023-02-28T16:43:53;5.03;;;3.27;;
14209;SDS011;7188;56.070;12.698;2023-02-28T16:46:31;6.30;;;3.60;;
14209;SDS011;7188;56.070;12.698;2023-02-28T16:48:59;6.63;;;4.10;;
14209;SDS011;7188;56.070;12.698;2023-02-28T16:51:25;6.00;;;4.43;;
14209;SDS011;7188;56.070;12.698;2023-02-28T16:53:50;5.73;;;3.70;;
14209;SDS011;7188;56.070;12.698;2023-02-28T16:56:22;5.87;;;3.70;;
14209;SDS011;7188;56.070;12.698;2023-02-28T16:58:50;5.90;;;4.30;;
14209;SDS011;7188;56.070;12.698;2023-02-28T17:01:18;4.67;;;3.60;;
14209;SDS011;7188;56.070;12.698;2023-02-28T17:03:47;4.93;;;3.73;;
14209;SDS011;7188;56.070;12.698;2023-02-28T17:06:20;3.23;;;2.80;;
14209;SDS011;7188;56.070;12.698;2023-02-28T17:08:51;3.03;;;2.70;;
14209;SDS011;7188;56.070;12.698;2023-02-28T17:11:17;7.37;;;4.33;;
14209;SDS011;7188;56.070;12.698;2023-02-28T17:13:44;7.90;;;4.73;;
14209;SDS011;7188;56.070;12.698;2023-02-28T17:16:14;6.80;;;4.03;;
14209;SDS011;7188;56.070;12.698;2023-02-28T17:19:00;5.80;;;4.57;;
14209;SDS011;7188;56.070;12.698;2023-02-28T17:21:29;6.73;;;4.93;;
14209;SDS011;7188;56.070;12.698;2023-02-28T17:23:55;6.57;;;5.10;;
14209;SDS011;7188;56.070;12.698;2023-02-28T17:26:21;5.57;;;4.37;;
14209;SDS011;7188;56.070;12.698;2023-02-28T17:28:50;15.77;;;5.93;;
14209;SDS011;7188;56.070;12.698;2023-02-28T17:31:21;9.83;;;6.67;;
14209;SDS011;7188;56.070;12.698;2023-02-28T17:33:47;8.83;;;6.47;;
14209;SDS011;7188;56.070;12.698;2023-02-28T17:36:14;8.47;;;6.33;;
14209;SDS011;7188;56.070;12.698;2023-02-28T17:38:41;10.87;;;7.30;;
14209;SDS011;7188;56.070;12.698;2023-02-28T17:41:10;10.47;;;7.00;;
14209;SDS011;7188;56.070;12.698;2023-02-28T17:43:36;10.93;;;7.83;;